Ackerly, Texas
Current Conditions -  °F | °C
As of 4:55 PM on Tuesday 21 Oct 2014 (Local Time) from KBPG Reporting Station
Overcast Overcast  
Wind Chill: 79°   Ceiling: 6500
Heat Index: 79°   Visibility: 10mi
Dew Point: 53°   Wind: 7mph
Humidity: 41%   Direction: 130°SE
Pressure: 30.06"   Gusts: NA
Location:  32.53°N, 101.72°W
Report Text: KBPG 212155Z AUTO 13006KT 10SM OVC065 26/12 A3006 RMK AO2 T02600118
Loading
Personal Weather Stations






























Interactive Weather Map
Tropical Storm Tracking
New forecast layout! Learn more

10-Day Weather Forecast

Advertisements
Track Severe Weather on mobile